Time;durP1;ratioP1;P1;durP2;ratioP2;P2;SDS_P1;SDS_P2;PMS_P1;PMS_P2;Temp;Humidity;BMP_temperature;BMP_pressure;BME280_temperature;BME280_humidity;BME280_pressure;Samples;Min_cycle;Max_cycle;Signal;HPM_P1;HPM_P2
2022/01/18 00:01:25;;;;;;;47.17;24.88;;;;;;;;;;6159813;23;20028;-67
2022/01/18 00:03:50;;;;;;;35.47;16.30;;;;;;;;;;6159199;23;20001;-67
2022/01/18 00:06:16;;;;;;;31.92;15.30;;;;;;;;;;6186321;23;20013;-65
2022/01/18 00:08:41;;;;;;;35.53;16.73;;;;;;;;;;6186013;23;20033;-66
2022/01/18 00:11:07;;;;;;;27.13;12.45;;;;;;;;;;6186044;23;20465;-66
2022/01/18 00:13:45;;;;;;;21.85;8.85;;;;;;;;;;6186005;23;20077;-66
2022/01/18 00:18:59;;;;;;;15.73;7.35;;;;;;;;;;6186139;23;20731;-66
2022/01/18 00:21:32;;;;;;;17.65;7.47;;;;;;;;;;6185906;23;20031;-66
2022/01/18 00:23:58;;;;;;;18.40;7.85;;;;;;;;;;6159689;23;20013;-66
2022/01/18 00:26:30;;;;;;;16.58;7.30;;;;;;;;;;6186085;23;20004;-66
2022/01/18 00:28:59;;;;;;;17.45;7.20;;;;;;;;;;6159631;23;20019;-66
2022/01/18 00:31:38;;;;;;;17.67;6.95;;;;;;;;;;6185902;23;20001;-66
2022/01/18 00:34:18;;;;;;;17.40;6.65;;;;;;;;;;6186119;23;20008;-66
2022/01/18 00:39:12;;;;;;;15.75;6.53;;;;;;;;;;6159541;23;20012;-67
2022/01/18 00:41:39;;;;;;;14.18;6.78;;;;;;;;;;6185488;23;20024;-68
2022/01/18 00:44:04;;;;;;;17.27;7.47;;;;;;;;;;6185922;23;20005;-68
2022/01/18 00:46:30;;;;;;;19.23;7.00;;;;;;;;;;6185496;23;20383;-68
2022/01/18 00:48:59;;;;;;;14.18;6.32;;;;;;;;;;6159304;23;20001;-68
2022/01/18 00:51:25;;;;;;;17.65;7.03;;;;;;;;;;6185878;23;20089;-68
2022/01/18 00:53:50;;;;;;;12.43;6.20;;;;;;;;;;6185532;23;20367;-68
2022/01/18 00:56:21;;;;;;;12.85;5.68;;;;;;;;;;6158930;23;20080;-68
2022/01/18 00:58:47;;;;;;;13.55;6.57;;;;;;;;;;6185650;23;20156;-67
2022/01/18 01:01:13;;;;;;;11.32;5.57;;;;;;;;;;6185593;23;20061;-67
2022/01/18 01:03:38;;;;;;;12.85;5.88;;;;;;;;;;6186191;23;20083;-67
2022/01/18 01:06:04;;;;;;;11.82;5.80;;;;;;;;;;6185413;23;20035;-67
2022/01/18 01:08:30;;;;;;;12.35;5.07;;;;;;;;;;6134386;23;20009;-67
2022/01/18 01:10:56;;;;;;;10.68;4.97;;;;;;;;;;6159752;23;20020;-67
2022/01/18 01:13:22;;;;;;;9.93;4.53;;;;;;;;;;6185815;23;20012;-67
2022/01/18 01:16:09;;;;;;;12.02;5.18;;;;;;;;;;6186011;23;20001;-67
2022/01/18 01:19:05;;;;;;;14.43;5.25;;;;;;;;;;6185826;23;20545;-67
2022/01/18 01:43:23;;;;;;;10.32;5.03;;;;;;;;;;6185508;23;20016;-64
2022/01/18 01:45:50;;;;;;;7.03;3.42;;;;;;;;;;6185848;23;20492;-64
2022/01/18 01:48:17;;;;;;;11.90;4.28;;;;;;;;;;6185290;23;20055;-67
2022/01/18 01:51:02;;;;;;;9.70;3.65;;;;;;;;;;6185171;23;20002;-66
2022/01/18 01:53:27;;;;;;;10.30;3.97;;;;;;;;;;6159502;23;19998;-65
2022/01/18 01:55:54;;;;;;;8.73;3.15;;;;;;;;;;6185836;23;19997;-65
2022/01/18 01:58:20;;;;;;;9.55;3.47;;;;;;;;;;6186911;23;20008;-65
2022/01/18 02:00:49;;;;;;;9.13;4.00;;;;;;;;;;6187317;23;20000;-66
2022/01/18 02:03:15;;;;;;;7.75;3.60;;;;;;;;;;6136464;23;20472;-66
2022/01/18 02:05:40;;;;;;;6.47;3.70;;;;;;;;;;6187173;23;20001;-67
2022/01/18 02:08:07;;;;;;;9.57;4.00;;;;;;;;;;6187393;23;20083;-67
2022/01/18 02:10:36;;;;;;;10.55;4.20;;;;;;;;;;6187365;23;20012;-68
2022/01/18 02:13:02;;;;;;;7.93;4.10;;;;;;;;;;6187358;23;20001;-68
2022/01/18 02:15:28;;;;;;;8.43;3.53;;;;;;;;;;6187098;23;20464;-68
2022/01/18 02:23:24;;;;;;;8.23;3.75;;;;;;;;;;6187422;23;20013;-66
2022/01/18 02:25:50;;;;;;;8.20;3.75;;;;;;;;;;6187054;23;20383;-65
2022/01/18 02:28:18;;;;;;;8.45;3.60;;;;;;;;;;6186928;23;20096;-63
2022/01/18 02:30:44;;;;;;;7.10;3.40;;;;;;;;;;6187008;23;20432;-65
2022/01/18 02:33:10;;;;;;;9.93;3.70;;;;;;;;;;6160462;23;20024;-65
2022/01/18 02:35:36;;;;;;;7.13;3.25;;;;;;;;;;6186920;23;20410;-65
2022/01/18 02:38:02;;;;;;;6.07;3.20;;;;;;;;;;6186727;23;20096;-65
2022/01/18 02:40:27;;;;;;;7.93;3.40;;;;;;;;;;6186240;23;20096;-65
2022/01/18 02:43:00;;;;;;;8.05;3.30;;;;;;;;;;6187335;23;20005;-64
2022/01/18 02:45:25;;;;;;;6.53;3.15;;;;;;;;;;6186842;23;20009;-65
2022/01/18 02:47:51;;;;;;;6.50;2.95;;;;;;;;;;6186717;23;20012;-65
2022/01/18 02:50:17;;;;;;;6.35;3.00;;;;;;;;;;6160602;23;20377;-66
2022/01/18 02:52:43;;;;;;;7.93;3.30;;;;;;;;;;6186589;23;19997;-66
2022/01/18 02:55:09;;;;;;;9.30;3.20;;;;;;;;;;6187049;23;20051;-66
2022/01/18 02:57:43;;;;;;;8.55;3.40;;;;;;;;;;6186615;23;19997;-66
2022/01/18 03:00:25;;;;;;;8.00;3.58;;;;;;;;;;6186825;23;20005;-66
2022/01/18 03:05:34;;;;;;;10.48;3.30;;;;;;;;;;6160738;23;20016;-66
2022/01/18 03:07:59;;;;;;;6.88;2.92;;;;;;;;;;6186171;23;20005;-65
2022/01/18 03:10:25;;;;;;;5.97;2.95;;;;;;;;;;6186389;23;20001;-66
2022/01/18 03:12:50;;;;;;;7.63;2.72;;;;;;;;;;6186615;23;20099;-66
2022/01/18 03:15:16;;;;;;;6.07;2.55;;;;;;;;;;6186818;23;20012;-66
2022/01/18 03:17:41;;;;;;;6.25;3.10;;;;;;;;;;6186690;23;20005;-66
2022/01/18 03:20:11;;;;;;;8.15;3.25;;;;;;;;;;6186400;23;20421;-66
2022/01/18 03:22:36;;;;;;;7.10;3.00;;;;;;;;;;6186389;23;20002;-66
2022/01/18 03:25:14;;;;;;;8.20;3.03;;;;;;;;;;6186281;23;20016;-66
2022/01/18 03:30:23;;;;;;;7.00;3.03;;;;;;;;;;6186678;23;20001;-66
2022/01/18 03:32:49;;;;;;;5.72;3.03;;;;;;;;;;6186346;23;20039;-65
2022/01/18 03:35:14;;;;;;;6.97;3.10;;;;;;;;;;6186215;23;20001;-66
2022/01/18 03:37:40;;;;;;;7.68;3.17;;;;;;;;;;6186431;23;19997;-66
2022/01/18 03:40:06;;;;;;;6.50;2.70;;;;;;;;;;6186096;23;20461;-66
2022/01/18 03:45:05;;;;;;;6.10;3.15;;;;;;;;;;6186163;23;20421;-67
2022/01/18 03:47:31;;;;;;;7.07;2.83;;;;;;;;;;6185986;23;20005;-67
2022/01/18 03:49:57;;;;;;;5.97;3.00;;;;;;;;;;6186168;23;20429;-66
2022/01/18 03:52:22;;;;;;;6.03;3.20;;;;;;;;;;6186551;23;19993;-67
2022/01/18 03:54:50;;;;;;;7.43;3.05;;;;;;;;;;6186381;23;20063;-67
2022/01/18 03:57:16;;;;;;;6.35;3.28;;;;;;;;;;6186172;23;19993;-67
2022/01/18 03:59:42;;;;;;;5.15;2.40;;;;;;;;;;6185889;23;20024;-67
2022/01/18 04:02:08;;;;;;;6.65;3.20;;;;;;;;;;6186173;23;20012;-66
2022/01/18 04:04:34;;;;;;;9.85;3.30;;;;;;;;;;6186120;23;20092;-65
2022/01/18 04:07:00;;;;;;;5.18;2.90;;;;;;;;;;6186018;23;19997;-65
2022/01/18 04:09:26;;;;;;;5.35;2.38;;;;;;;;;;6185667;23;20009;-67
2022/01/18 04:11:51;;;;;;;7.45;3.00;;;;;;;;;;6186117;23;20307;-66
2022/01/18 04:14:17;;;;;;;9.13;3.38;;;;;;;;;;6186347;23;20033;-66
2022/01/18 04:16:57;;;;;;;7.25;2.63;;;;;;;;;;6159852;23;19993;-66
2022/01/18 04:27:25;;;;;;;5.55;2.85;;;;;;;;;;6186218;23;20005;-68
2022/01/18 04:29:50;;;;;;;6.80;3.63;;;;;;;;;;6159623;23;20052;-68
2022/01/18 04:32:16;;;;;;;7.32;3.35;;;;;;;;;;6185911;23;20032;-68
2022/01/18 04:34:41;;;;;;;4.93;2.30;;;;;;;;;;6185278;23;20012;-68
2022/01/18 04:37:07;;;;;;;7.18;2.95;;;;;;;;;;6186175;23;20005;-68
2022/01/18 04:39:37;;;;;;;6.55;3.10;;;;;;;;;;6185835;23;20008;-68
2022/01/18 04:42:03;;;;;;;7.28;3.00;;;;;;;;;;6185263;23;20021;-68
2022/01/18 04:49:57;;;;;;;6.28;3.10;;;;;;;;;;6186241;23;20013;-68
2022/01/18 04:52:23;;;;;;;8.40;3.15;;;;;;;;;;6185982;23;20481;-68
2022/01/18 04:54:58;;;;;;;6.50;3.08;;;;;;;;;;6185732;23;20096;-68
2022/01/18 04:59:48;;;;;;;8.30;3.15;;;;;;;;;;6185847;23;20048;-69
2022/01/18 05:02:14;;;;;;;7.13;3.35;;;;;;;;;;6159539;23;20084;-69
2022/01/18 05:04:42;;;;;;;7.90;3.55;;;;;;;;;;6158660;23;20052;-69
2022/01/18 05:07:11;;;;;;;8.95;4.03;;;;;;;;;;6185922;23;20009;-69
2022/01/18 05:09:36;;;;;;;5.68;3.05;;;;;;;;;;6185573;23;20001;-69
2022/01/18 05:12:12;;;;;;;8.25;3.25;;;;;;;;;;6185347;23;20488;-69
2022/01/18 05:14:39;;;;;;;4.82;2.80;;;;;;;;;;6185592;23;20540;-66
2022/01/18 05:24:30;;;;;;;7.75;3.42;;;;;;;;;;6185896;23;20015;-67
2022/01/18 05:26:57;;;;;;;6.20;3.47;;;;;;;;;;6185584;23;20405;-68
2022/01/18 05:29:23;;;;;;;6.22;3.17;;;;;;;;;;6185423;23;20009;-68
2022/01/18 05:31:48;;;;;;;6.25;3.15;;;;;;;;;;6186516;23;20369;-67
2022/01/18 05:34:14;;;;;;;5.47;3.03;;;;;;;;;;6187629;23;20438;-67
2022/01/18 05:36:40;;;;;;;6.60;3.55;;;;;;;;;;6187683;23;20001;-67
2022/01/18 05:39:06;;;;;;;5.82;2.80;;;;;;;;;;6187284;23;20016;-67
2022/01/18 05:41:31;;;;;;;6.88;3.20;;;;;;;;;;6186666;23;20133;-68
2022/01/18 05:43:57;;;;;;;4.53;2.72;;;;;;;;;;6161134;23;20385;-68
2022/01/18 05:46:24;;;;;;;5.57;2.17;;;;;;;;;;6187425;23;20005;-68
2022/01/18 05:48:50;;;;;;;5.88;2.78;;;;;;;;;;6187118;23;20036;-68
2022/01/18 05:51:15;;;;;;;3.67;2.35;;;;;;;;;;6187244;23;19997;-68
2022/01/18 05:53:41;;;;;;;5.80;2.90;;;;;;;;;;6160845;23;20005;-68
2022/01/18 05:56:16;;;;;;;5.50;2.78;;;;;;;;;;6187135;23;19997;-68
2022/01/18 05:58:44;;;;;;;8.77;3.22;;;;;;;;;;6160902;23;20005;-68
2022/01/18 06:01:10;;;;;;;6.70;3.25;;;;;;;;;;6187167;23;20024;-68
2022/01/18 06:03:52;;;;;;;7.60;3.55;;;;;;;;;;6187113;23;20032;-68
2022/01/18 06:09:02;;;;;;;6.97;3.17;;;;;;;;;;6187366;23;20009;-68
2022/01/18 06:11:28;;;;;;;6.60;3.10;;;;;;;;;;6187206;23;20040;-68
2022/01/18 06:13:53;;;;;;;6.80;3.20;;;;;;;;;;6187270;23;20440;-68
2022/01/18 06:16:18;;;;;;;5.32;3.03;;;;;;;;;;6187346;23;19997;-68
2022/01/18 06:18:44;;;;;;;4.65;2.80;;;;;;;;;;6187126;23;20033;-68
2022/01/18 06:21:10;;;;;;;4.60;2.80;;;;;;;;;;6186357;23;20449;-68
2022/01/18 06:23:35;;;;;;;6.30;3.33;;;;;;;;;;6186738;23;20032;-68
2022/01/18 06:26:03;;;;;;;5.82;2.75;;;;;;;;;;6187045;23;20322;-68
2022/01/18 06:28:29;;;;;;;8.70;3.35;;;;;;;;;;6186837;23;20009;-68
2022/01/18 06:30:54;;;;;;;8.45;3.30;;;;;;;;;;6186804;23;20004;-68
2022/01/18 06:33:20;;;;;;;5.72;3.17;;;;;;;;;;6186927;23;20005;-68
2022/01/18 06:35:45;;;;;;;8.63;3.70;;;;;;;;;;6186727;23;20001;-68
2022/01/18 06:38:12;;;;;;;6.10;3.00;;;;;;;;;;6186874;23;20005;-68
2022/01/18 06:40:38;;;;;;;7.65;3.15;;;;;;;;;;6186958;23;19997;-68
2022/01/18 06:43:04;;;;;;;7.47;2.95;;;;;;;;;;6186902;23;20450;-68
2022/01/18 06:45:30;;;;;;;7.45;3.33;;;;;;;;;;6187143;23;20033;-68
2022/01/18 06:47:55;;;;;;;5.80;2.83;;;;;;;;;;6186702;23;20425;-68
2022/01/18 06:50:21;;;;;;;7.30;2.83;;;;;;;;;;6186844;23;20055;-68
2022/01/18 06:52:46;;;;;;;7.13;2.88;;;;;;;;;;6187116;23;19997;-68
2022/01/18 06:55:12;;;;;;;6.38;2.70;;;;;;;;;;6186748;23;20425;-68
2022/01/18 06:57:38;;;;;;;7.03;2.53;;;;;;;;;;6187290;23;20096;-68
2022/01/18 07:00:04;;;;;;;5.15;2.95;;;;;;;;;;6186813;23;20060;-68
2022/01/18 07:02:29;;;;;;;7.32;3.17;;;;;;;;;;6186403;23;20001;-68
2022/01/18 07:04:55;;;;;;;7.75;3.00;;;;;;;;;;6186510;23;20105;-68
2022/01/18 07:07:20;;;;;;;6.95;3.00;;;;;;;;;;6186357;23;20076;-68
2022/01/18 07:09:47;;;;;;;5.35;2.33;;;;;;;;;;6186715;23;20012;-68
2022/01/18 07:12:13;;;;;;;6.63;3.00;;;;;;;;;;6186675;23;20072;-68
2022/01/18 07:14:39;;;;;;;6.57;3.25;;;;;;;;;;6186408;23;20008;-68
2022/01/18 07:17:04;;;;;;;6.63;3.53;;;;;;;;;;6185766;23;20001;-69
2022/01/18 07:19:33;;;;;;;7.28;3.95;;;;;;;;;;6186789;23;20088;-68
2022/01/18 07:21:59;;;;;;;13.05;6.00;;;;;;;;;;6186487;23;20052;-67
2022/01/18 07:24:37;;;;;;;8.98;5.30;;;;;;;;;;6186229;23;20100;-68
2022/01/18 07:27:04;;;;;;;5.05;3.03;;;;;;;;;;6186632;23;20005;-68
2022/01/18 07:29:30;;;;;;;7.10;3.72;;;;;;;;;;6135565;23;20012;-68
2022/01/18 07:31:55;;;;;;;4.15;2.80;;;;;;;;;;6160139;23;20005;-68
2022/01/18 07:34:21;;;;;;;5.82;3.72;;;;;;;;;;6160124;23;20004;-68
2022/01/18 07:36:46;;;;;;;12.10;5.93;;;;;;;;;;6186491;23;20437;-68
2022/01/18 07:39:11;;;;;;;5.93;2.72;;;;;;;;;;6186006;23;20004;-68
2022/01/18 07:41:37;;;;;;;8.05;4.22;;;;;;;;;;6185363;23;20017;-68
2022/01/18 07:44:03;;;;;;;9.45;3.95;;;;;;;;;;6186228;23;20023;-68
2022/01/18 07:46:28;;;;;;;9.52;3.65;;;;;;;;;;6185904;23;20024;-68
2022/01/18 07:48:54;;;;;;;8.48;3.88;;;;;;;;;;6159623;23;20004;-67
2022/01/18 07:51:20;;;;;;;8.60;3.80;;;;;;;;;;6185982;23;19998;-67
2022/01/18 07:53:45;;;;;;;6.07;3.35;;;;;;;;;;6185969;23;20011;-67
2022/01/18 07:56:10;;;;;;;6.78;3.50;;;;;;;;;;6185631;23;19993;-67
2022/01/18 07:58:36;;;;;;;6.35;2.78;;;;;;;;;;6159642;23;20012;-67
2022/01/18 08:01:01;;;;;;;4.15;3.20;;;;;;;;;;6185791;23;20484;-67
2022/01/18 08:03:29;;;;;;;5.13;2.83;;;;;;;;;;6185925;23;20089;-67
2022/01/18 08:05:54;;;;;;;6.82;3.20;;;;;;;;;;6185935;23;20085;-67
2022/01/18 08:08:20;;;;;;;7.45;3.28;;;;;;;;;;6185615;23;20433;-67
2022/01/18 08:10:45;;;;;;;7.15;2.97;;;;;;;;;;6185087;23;20005;-67
2022/01/18 08:13:11;;;;;;;7.47;3.45;;;;;;;;;;6185631;23;20006;-67
2022/01/18 08:15:40;;;;;;;6.07;2.95;;;;;;;;;;6185705;23;19993;-67
2022/01/18 08:18:07;;;;;;;6.88;3.05;;;;;;;;;;6185671;23;20091;-67
2022/01/18 08:20:32;;;;;;;6.22;3.45;;;;;;;;;;6159174;23;20012;-67
2022/01/18 08:22:57;;;;;;;11.48;5.10;;;;;;;;;;6185606;23;20009;-67
2022/01/18 08:25:23;;;;;;;7.82;4.13;;;;;;;;;;6185552;23;20418;-67
2022/01/18 08:27:49;;;;;;;9.40;4.40;;;;;;;;;;6185449;23;20063;-67
2022/01/18 08:30:17;;;;;;;8.10;3.88;;;;;;;;;;6185761;23;20433;-67
2022/01/18 08:32:43;;;;;;;8.02;4.43;;;;;;;;;;6185632;23;20000;-67
2022/01/18 08:35:09;;;;;;;9.73;4.35;;;;;;;;;;6159348;23;20444;-68
2022/01/18 08:37:34;;;;;;;8.35;3.72;;;;;;;;;;6185375;23;20084;-68
2022/01/18 08:40:00;;;;;;;22.17;10.07;;;;;;;;;;6185535;23;20420;-67
2022/01/18 08:42:25;;;;;;;7.88;3.70;;;;;;;;;;6185248;23;20017;-68
2022/01/18 08:44:51;;;;;;;13.00;5.45;;;;;;;;;;6185601;23;20001;-68
2022/01/18 08:47:17;;;;;;;8.65;4.25;;;;;;;;;;6185354;23;20029;-68
2022/01/18 08:49:43;;;;;;;11.57;4.10;;;;;;;;;;6158966;23;20315;-68
2022/01/18 08:52:08;;;;;;;9.45;4.70;;;;;;;;;;6185376;23;20005;-68
2022/01/18 08:54:34;;;;;;;9.38;4.18;;;;;;;;;;6185277;23;20032;-68
2022/01/18 08:57:00;;;;;;;11.82;4.50;;;;;;;;;;6185333;23;20001;-68
2022/01/18 08:59:25;;;;;;;5.53;3.67;;;;;;;;;;6185557;23;20005;-68
2022/01/18 09:01:51;;;;;;;11.63;3.60;;;;;;;;;;6159084;23;20061;-68
2022/01/18 09:04:17;;;;;;;14.23;6.10;;;;;;;;;;6185120;23;20004;-68
2022/01/18 09:06:45;;;;;;;9.63;4.03;;;;;;;;;;6185810;23;20013;-68
2022/01/18 09:09:11;;;;;;;8.02;3.97;;;;;;;;;;6187342;23;20008;-68
2022/01/18 09:11:37;;;;;;;18.30;6.78;;;;;;;;;;6187442;23;20005;-68
2022/01/18 09:14:02;;;;;;;6.70;3.60;;;;;;;;;;6187283;23;20470;-68
2022/01/18 09:16:28;;;;;;;12.75;5.10;;;;;;;;;;6187388;23;20373;-68
2022/01/18 09:18:53;;;;;;;8.55;4.53;;;;;;;;;;6187392;23;20001;-68
2022/01/18 09:21:19;;;;;;;8.13;4.70;;;;;;;;;;6187300;23;20013;-68
2022/01/18 09:23:44;;;;;;;14.52;5.30;;;;;;;;;;6187290;23;20021;-68
2022/01/18 09:26:13;;;;;;;6.78;3.75;;;;;;;;;;6160994;23;20009;-68
2022/01/18 09:28:38;;;;;;;6.70;4.32;;;;;;;;;;6187223;23;20012;-67
2022/01/18 09:31:04;;;;;;;10.27;5.00;;;;;;;;;;6187395;23;20315;-68
2022/01/18 09:33:29;;;;;;;9.43;4.28;;;;;;;;;;6187182;23;20048;-68
2022/01/18 09:35:55;;;;;;;8.32;4.28;;;;;;;;;;6187193;23;20521;-68
2022/01/18 09:38:20;;;;;;;10.25;5.15;;;;;;;;;;6187034;23;20449;-68
2022/01/18 09:40:46;;;;;;;12.23;5.55;;;;;;;;;;6187147;23;20088;-68
2022/01/18 09:43:13;;;;;;;7.43;4.32;;;;;;;;;;6186967;23;20172;-68
2022/01/18 09:45:41;;;;;;;9.52;4.95;;;;;;;;;;6187442;23;20015;-68
2022/01/18 09:48:07;;;;;;;8.63;4.22;;;;;;;;;;6186814;23;20410;-68
2022/01/18 09:50:34;;;;;;;10.82;4.93;;;;;;;;;;6186953;23;20056;-68
2022/01/18 09:53:00;;;;;;;8.10;5.20;;;;;;;;;;6186987;23;20333;-67
2022/01/18 09:55:26;;;;;;;8.80;4.63;;;;;;;;;;6187105;23;20008;-67
2022/01/18 09:57:53;;;;;;;10.68;5.38;;;;;;;;;;6187233;23;20051;-68
2022/01/18 10:00:20;;;;;;;11.60;6.00;;;;;;;;;;6186904;23;20342;-68
2022/01/18 10:02:45;;;;;;;11.63;5.47;;;;;;;;;;6186990;23;20075;-68
2022/01/18 10:05:18;;;;;;;13.82;6.60;;;;;;;;;;6186939;23;20040;-68
2022/01/18 10:07:43;;;;;;;10.27;5.15;;;;;;;;;;6186864;23;20052;-68
2022/01/18 10:10:09;;;;;;;10.15;5.60;;;;;;;;;;6187045;23;20421;-68
2022/01/18 10:12:34;;;;;;;10.93;5.28;;;;;;;;;;6186911;23;20496;-68
2022/01/18 10:15:01;;;;;;;12.15;5.90;;;;;;;;;;6186914;23;19994;-68
2022/01/18 10:17:29;;;;;;;9.98;5.78;;;;;;;;;;6186492;23;20063;-67
2022/01/18 10:19:54;;;;;;;12.70;5.82;;;;;;;;;;6186703;23;20009;-66
2022/01/18 10:22:25;;;;;;;12.55;4.93;;;;;;;;;;6186658;23;20340;-66
2022/01/18 10:24:52;;;;;;;10.98;5.60;;;;;;;;;;6186846;23;20005;-66
2022/01/18 10:27:17;;;;;;;10.80;5.28;;;;;;;;;;6186734;23;20092;-66
2022/01/18 10:29:44;;;;;;;10.80;6.03;;;;;;;;;;6186656;23;20417;-66
2022/01/18 10:32:17;;;;;;;9.27;5.00;;;;;;;;;;6186912;23;20448;-66
2022/01/18 10:37:17;;;;;;;8.02;4.53;;;;;;;;;;6160302;23;20342;-66
2022/01/18 10:39:50;;;;;;;6.43;4.65;;;;;;;;;;6186645;23;20075;-67
2022/01/18 10:42:19;;;;;;;12.38;5.47;;;;;;;;;;6185851;23;20021;-67
2022/01/18 10:44:46;;;;;;;7.90;3.78;;;;;;;;;;6186465;23;20425;-67
2022/01/18 10:47:12;;;;;;;7.10;4.32;;;;;;;;;;6186493;23;20429;-67
2022/01/18 10:49:44;;;;;;;11.02;5.25;;;;;;;;;;6186449;23;20029;-67
2022/01/18 10:52:14;;;;;;;9.82;4.32;;;;;;;;;;6186211;23;20452;-67
2022/01/18 10:54:50;;;;;;;8.37;4.23;;;;;;;;;;6186548;23;20009;-67
2022/01/18 10:57:26;;;;;;;8.25;4.55;;;;;;;;;;6160025;23;20688;-67
2022/01/18 11:00:02;;;;;;;9.00;5.05;;;;;;;;;;6186492;23;20059;-67
2022/01/18 11:02:31;;;;;;;8.85;4.43;;;;;;;;;;6186392;23;20338;-67
2022/01/18 11:04:58;;;;;;;11.27;4.73;;;;;;;;;;6186523;23;20033;-66
2022/01/18 11:07:24;;;;;;;8.85;4.80;;;;;;;;;;6186533;23;20484;-66
2022/01/18 11:09:50;;;;;;;8.70;4.38;;;;;;;;;;6159995;23;20337;-66
2022/01/18 11:12:16;;;;;;;8.85;3.95;;;;;;;;;;6186315;23;20084;-66
2022/01/18 11:14:48;;;;;;;9.30;5.00;;;;;;;;;;6186218;23;20088;-66
2022/01/18 11:17:23;;;;;;;9.82;5.43;;;;;;;;;;6186267;23;20006;-66
2022/01/18 11:19:50;;;;;;;11.82;5.05;;;;;;;;;;6186380;23;20013;-66
2022/01/18 11:22:16;;;;;;;10.98;4.70;;;;;;;;;;6185879;23;20004;-67
2022/01/18 11:24:42;;;;;;;12.32;5.47;;;;;;;;;;6186147;23;20009;-67
2022/01/18 11:27:12;;;;;;;8.63;5.47;;;;;;;;;;6186278;23;19997;-66
2022/01/18 11:29:38;;;;;;;9.45;5.55;;;;;;;;;;6185708;23;20009;-66
2022/01/18 11:32:04;;;;;;;9.13;5.45;;;;;;;;;;6186059;23;20020;-66
2022/01/18 11:34:36;;;;;;;10.57;5.55;;;;;;;;;;6186308;23;20384;-66
2022/01/18 11:37:22;;;;;;;8.85;4.65;;;;;;;;;;6186068;23;20008;-67
2022/01/18 11:39:56;;;;;;;10.05;4.80;;;;;;;;;;6186025;23;20012;-67
2022/01/18 11:42:22;;;;;;;11.60;5.97;;;;;;;;;;6185271;23;20028;-67
2022/01/18 11:44:47;;;;;;;11.25;5.82;;;;;;;;;;6185911;23;20011;-66
2022/01/18 11:47:26;;;;;;;86.78;34.92;;;;;;;;;;6185728;23;20029;-67
2022/01/18 11:49:52;;;;;;;7.55;4.82;;;;;;;;;;6185880;23;20453;-68
2022/01/18 11:52:36;;;;;;;11.65;5.13;;;;;;;;;;6159502;23;20005;-68
2022/01/18 11:55:03;;;;;;;12.38;5.85;;;;;;;;;;6185897;23;20033;-68
2022/01/18 11:57:29;;;;;;;8.32;4.55;;;;;;;;;;6185901;23;20008;-68
2022/01/18 12:00:07;;;;;;;10.85;4.88;;;;;;;;;;6185963;23;20005;-68
2022/01/18 12:02:41;;;;;;;6.78;4.47;;;;;;;;;;6185865;23;20047;-68
2022/01/18 12:05:19;;;;;;;12.57;4.90;;;;;;;;;;6185819;23;20005;-68
2022/01/18 12:07:47;;;;;;;9.77;5.25;;;;;;;;;;6185684;23;20375;-68
2022/01/18 12:10:22;;;;;;;25.35;10.88;;;;;;;;;;6185802;23;20001;-68
2022/01/18 12:12:51;;;;;;;9.60;5.35;;;;;;;;;;6185662;23;20425;-72
2022/01/18 12:15:19;;;;;;;9.23;4.90;;;;;;;;;;6185757;23;20004;-64
2022/01/18 12:17:46;;;;;;;6.72;4.28;;;;;;;;;;6185623;23;20425;-66
2022/01/18 12:20:31;;;;;;;8.13;5.00;;;;;;;;;;6185657;23;19993;-64
2022/01/18 12:22:59;;;;;;;53.83;18.85;;;;;;;;;;6110441;23;20334;-69
2022/01/18 12:25:25;;;;;;;13.70;5.47;;;;;;;;;;6185707;23;20001;-68
2022/01/18 12:27:51;;;;;;;6.88;4.15;;;;;;;;;;6185586;23;20005;-68
2022/01/18 12:33:20;;;;;;;14.07;5.93;;;;;;;;;;6185834;23;20329;-68
2022/01/18 12:35:45;;;;;;;7.70;4.20;;;;;;;;;;6185771;23;20071;-68
2022/01/18 12:38:23;;;;;;;18.60;7.35;;;;;;;;;;6185563;23;19997;-68
2022/01/18 12:40:49;;;;;;;9.02;4.15;;;;;;;;;;6185386;23;20075;-68
2022/01/18 12:45:41;;;;;;;74.57;21.88;;;;;;;;;;6185472;23;20013;-67
2022/01/18 12:51:41;;;;;;;7.07;4.00;;;;;;;;;;6186095;23;20016;-68
2022/01/18 13:08:29;;;;;;;7.13;4.35;;;;;;;;;;6095086;23;20017;-68
2022/01/18 13:34:49;;;;;;;8.02;4.45;;;;;;;;;;6185934;23;20063;-68
2022/01/18 13:37:16;;;;;;;9.35;5.20;;;;;;;;;;6186480;23;20005;-68
2022/01/18 13:43:19;;;;;;;10.00;5.35;;;;;;;;;;6184783;23;20024;-68
2022/01/18 13:45:44;;;;;;;7.25;4.38;;;;;;;;;;6185434;23;20088;-68
2022/01/18 13:48:14;;;;;;;5.88;3.80;;;;;;;;;;6184687;23;20395;-68
2022/01/18 13:50:43;;;;;;;6.30;3.87;;;;;;;;;;6185443;23;20521;-68
2022/01/18 13:53:08;;;;;;;10.35;6.78;;;;;;;;;;6185742;23;20224;-68
2022/01/18 13:55:36;;;;;;;10.18;5.28;;;;;;;;;;6186715;23;20101;-68
2022/01/18 13:58:02;;;;;;;10.70;5.78;;;;;;;;;;6160815;23;20358;-68
2022/01/18 14:07:09;;;;;;;11.35;5.78;;;;;;;;;;6186779;23;20031;-68
2022/01/18 14:09:36;;;;;;;17.63;11.35;;;;;;;;;;6186946;23;20433;-68
2022/01/18 14:12:02;;;;;;;22.58;10.00;;;;;;;;;;6186995;23;20009;-68
2022/01/18 14:14:29;;;;;;;37.47;14.55;;;;;;;;;;6186819;23;20381;-68
2022/01/18 14:16:57;;;;;;;10.70;6.50;;;;;;;;;;6186868;23;20008;-68
2022/01/18 14:22:57;;;;;;;12.10;6.20;;;;;;;;;;6187441;23;20000;-68
2022/01/18 14:28:59;;;;;;;12.05;6.68;;;;;;;;;;6187291;23;20341;-68
2022/01/18 14:35:06;;;;;;;13.95;6.95;;;;;;;;;;6187326;23;20024;-68
2022/01/18 14:45:35;;;;;;;14.50;7.47;;;;;;;;;;6096738;23;20489;-68
2022/01/18 14:51:50;;;;;;;14.98;7.80;;;;;;;;;;6096243;23;20335;-68
2022/01/18 15:08:03;;;;;;;14.45;7.75;;;;;;;;;;6095931;23;20065;-67
2022/01/18 15:14:04;;;;;;;15.20;9.10;;;;;;;;;;6106174;23;20007;-67
2022/01/18 15:16:30;;;;;;;20.08;9.65;;;;;;;;;;6185815;23;20396;-67
2022/01/18 15:18:55;;;;;;;21.85;10.48;;;;;;;;;;6186344;23;20092;-67
2022/01/18 15:21:20;;;;;;;18.90;9.50;;;;;;;;;;6186474;23;20031;-67
2022/01/18 15:27:20;;;;;;;17.60;8.30;;;;;;;;;;6186298;23;20020;-67
2022/01/18 15:29:46;;;;;;;15.70;7.75;;;;;;;;;;6186260;23;20005;-67
2022/01/18 15:32:12;;;;;;;16.92;7.88;;;;;;;;;;6186402;23;20001;-67
2022/01/18 15:34:38;;;;;;;15.02;8.13;;;;;;;;;;6185157;23;20001;-68
2022/01/18 15:37:03;;;;;;;12.02;6.55;;;;;;;;;;6159190;23;20496;-68
2022/01/18 15:39:31;;;;;;;13.70;7.40;;;;;;;;;;6186236;23;20088;-68
2022/01/18 15:41:56;;;;;;;10.30;6.22;;;;;;;;;;6185790;23;20013;-68
2022/01/18 15:44:22;;;;;;;13.70;6.78;;;;;;;;;;6186143;23;20125;-69
2022/01/18 15:46:47;;;;;;;15.77;9.75;;;;;;;;;;6186176;23;20503;-68
2022/01/18 15:49:13;;;;;;;15.80;8.73;;;;;;;;;;6185204;23;20005;-68
2022/01/18 15:51:38;;;;;;;10.20;5.97;;;;;;;;;;6186416;23;20370;-68
2022/01/18 15:54:04;;;;;;;11.27;5.90;;;;;;;;;;6186178;23;20036;-68
2022/01/18 15:56:30;;;;;;;15.07;7.57;;;;;;;;;;6186364;23;20001;-69
2022/01/18 15:58:57;;;;;;;11.63;6.65;;;;;;;;;;6185745;23;20057;-68
2022/01/18 16:01:23;;;;;;;15.38;8.20;;;;;;;;;;6186163;23;20024;-68
2022/01/18 16:03:48;;;;;;;18.88;9.48;;;;;;;;;;6186059;23;20012;-69
2022/01/18 16:06:15;;;;;;;15.55;7.88;;;;;;;;;;6186011;23;19997;-69
2022/01/18 16:08:41;;;;;;;10.68;6.30;;;;;;;;;;6184898;23;20059;-69
2022/01/18 16:11:08;;;;;;;12.55;7.07;;;;;;;;;;6185995;23;20406;-69
2022/01/18 16:13:34;;;;;;;13.70;9.23;;;;;;;;;;6186089;23;20005;-69
2022/01/18 16:16:00;;;;;;;14.70;7.47;;;;;;;;;;6185776;23;20094;-69
2022/01/18 16:22:01;;;;;;;10.65;6.10;;;;;;;;;;6186367;23;20117;-69
2022/01/18 16:28:01;;;;;;;17.15;9.15;;;;;;;;;;6186195;23;19996;-69
2022/01/18 16:34:03;;;;;;;13.43;7.10;;;;;;;;;;6186297;23;20000;-69
2022/01/18 16:40:07;;;;;;;14.60;7.40;;;;;;;;;;6186215;23;20087;-69
2022/01/18 16:56:23;;;;;;;17.63;8.40;;;;;;;;;;6186136;23;20024;-68
2022/01/18 17:05:59;;;;;;;16.05;8.80;;;;;;;;;;6186092;23;20368;-68
2022/01/18 17:12:00;;;;;;;16.95;9.15;;;;;;;;;;6186054;23;20063;-68
2022/01/18 17:18:02;;;;;;;16.48;9.40;;;;;;;;;;6186007;23;20321;-65
2022/01/18 17:24:03;;;;;;;21.20;10.65;;;;;;;;;;6185973;23;20060;-68
2022/01/18 17:30:04;;;;;;;19.40;9.70;;;;;;;;;;6187859;23;20092;-68
2022/01/18 17:36:05;;;;;;;13.90;8.25;;;;;;;;;;6187871;23;19999;-68
2022/01/18 17:42:06;;;;;;;15.70;8.55;;;;;;;;;;6187849;23;20044;-68
2022/01/18 17:48:07;;;;;;;17.30;9.23;;;;;;;;;;6187704;23;19996;-68
2022/01/18 18:07:51;;;;;;;22.67;11.13;;;;;;;;;;6187593;23;20424;-69
2022/01/18 18:13:51;;;;;;;15.98;7.72;;;;;;;;;;6187553;23;20065;-68
2022/01/18 18:19:53;;;;;;;21.27;8.45;;;;;;;;;;6187486;23;20000;-68
2022/01/18 18:25:53;;;;;;;8.23;5.05;;;;;;;;;;6187762;23;20000;-68
2022/01/18 18:31:55;;;;;;;8.68;4.38;;;;;;;;;;6187367;23;20345;-68
2022/01/18 18:37:56;;;;;;;7.65;4.18;;;;;;;;;;6187348;23;20035;-68
2022/01/18 18:44:25;;;;;;;9.05;5.15;;;;;;;;;;6197195;23;20012;-68
2022/01/18 18:50:27;;;;;;;13.50;5.65;;;;;;;;;;6187207;23;20043;-68
2022/01/18 19:06:56;;;;;;;8.15;5.20;;;;;;;;;;6187015;23;19995;-69
2022/01/18 19:12:58;;;;;;;8.68;5.38;;;;;;;;;;6186986;23;20101;-69
2022/01/18 19:18:59;;;;;;;11.93;6.43;;;;;;;;;;6186823;23;20035;-69
2022/01/18 19:25:00;;;;;;;10.68;5.50;;;;;;;;;;6186855;23;20094;-69
2022/01/18 19:31:01;;;;;;;13.48;5.97;;;;;;;;;;6186783;23;20061;-69
2022/01/18 19:40:52;;;;;;;15.75;6.55;;;;;;;;;;6186706;23;20019;-69
2022/01/18 19:46:33;;;;;;;17.42;7.82;;;;;;;;;;6186688;23;19911;-69
2022/01/18 19:52:35;;;;;;;15.00;6.43;;;;;;;;;;6186521;23;19996;-69